Aviation Digital Data Service (ADDS)

Output produced by METARs form (1349 UTC 26 May 2018)
found at http://www.aviationweather.gov/adds/metars/
 
TAF MNBL 252117Z 2600/2624 10006KT 9999 SCT080 SCT020 
     TEMPO 26006/2612 00000KT
       
TAF MNMG 261000Z 2612/2712 22004KT 6000 -RA/DZ SCT020 SCT070 
     BECMG 2613/2618 07008KT 9999 
     TEMPO 2619/2703 13010KT 7000 DZ/-TSRA FEW020CB SCT023
       
TAF MNPC 252117Z 2600/2624 18006KT 8000 HZ SCT016 
     PROB30 
     TEMPO 2606/2612 00000KT 7000 VCRA/DZ SCT016